createdAt,value
2023-01-01T05:02:04.890Z,99451.75
2023-01-01T05:06:10.335Z,99451.69
2023-01-01T05:10:13.072Z,99458.09
2023-01-01T05:14:17.957Z,99463.72
2023-01-01T05:18:22.053Z,99466.53
2023-01-01T05:22:24.834Z,99460.44
2023-01-01T05:26:29.775Z,99466.22
2023-01-01T05:30:32.532Z,99488.56
2023-01-01T05:38:38.620Z,99489.03
2023-01-01T05:42:41.386Z,99496.25
2023-01-01T05:46:44.145Z,99496.69
2023-01-01T05:50:48.218Z,99493.59
2023-01-01T05:54:51.210Z,99497.69
2023-01-01T05:58:54.297Z,99487.66
2023-01-01T06:02:57.119Z,99489.53
2023-01-01T06:07:01.217Z,99505.09
2023-01-01T06:11:06.246Z,99499.78
2023-01-01T06:15:10.003Z,99499.16
2023-01-01T06:19:12.698Z,99506.75
2023-01-01T06:23:17.000Z,99509.28
2023-01-01T06:27:20.396Z,99508.41
2023-01-01T06:31:23.645Z,99526.78
2023-01-01T06:35:26.719Z,99526.59
2023-01-01T06:39:30.844Z,99530.13
2023-01-01T06:43:35.398Z,99531.88
2023-01-01T06:47:38.338Z,99530.78
2023-01-01T06:51:44.150Z,99550.53
2023-01-01T06:55:56.733Z,99554.84
2023-01-01T07:00:00.154Z,99555.41
2023-01-01T07:04:06.059Z,99551.00
2023-01-01T07:08:08.980Z,99572.31
2023-01-01T07:12:13.172Z,99578.94
2023-01-01T07:16:16.528Z,99578.88
2023-01-01T07:20:19.547Z,99584.56
2023-01-01T07:24:22.673Z,99591.72
2023-01-01T07:28:27.679Z,99583.91
2023-01-01T07:32:30.436Z,99601.63
2023-01-01T07:36:33.583Z,99613.13
2023-01-01T07:40:36.433Z,99627.50
2023-01-01T07:44:40.714Z,99630.22
2023-01-01T07:48:43.610Z,99633.16
2023-01-01T07:52:46.605Z,99654.56
2023-01-01T07:56:49.625Z,99659.53
2023-01-01T08:00:54.433Z,99665.50
2023-01-01T08:04:57.381Z,99662.56
2023-01-01T08:09:00.161Z,99664.50
2023-01-01T08:13:04.035Z,99663.75
2023-01-01T08:17:08.192Z,99666.47
2023-01-01T08:21:11.017Z,99663.19
2023-01-01T08:25:14.019Z,99684.19
2023-01-01T08:29:17.581Z,99678.38
2023-01-01T08:33:23.078Z,99686.38
2023-01-01T08:37:25.993Z,99674.03
2023-01-01T08:41:29.674Z,99680.56
2023-01-01T08:45:32.455Z,99675.22
2023-01-01T08:49:36.584Z,99670.47
2023-01-01T08:53:39.336Z,99683.06
2023-01-01T08:57:42.100Z,99669.63
2023-01-01T09:01:45.174Z,99672.28
2023-01-01T09:05:49.480Z,99673.94
2023-01-01T09:09:52.213Z,99680.88
2023-01-01T09:13:56.154Z,99694.25
2023-01-01T09:17:58.919Z,99711.59
2023-01-01T09:22:03.118Z,99728.13
2023-01-01T09:26:06.338Z,99732.66
2023-01-01T09:30:11.595Z,99756.81
2023-01-01T09:34:14.894Z,99771.06
2023-01-01T09:38:19.503Z,99765.63
2023-01-01T09:42:35.170Z,99773.47
2023-01-01T09:46:38.193Z,99783.13
2023-01-01T09:50:43.815Z,99779.00
2023-01-01T09:54:52.823Z,99764.63
2023-01-01T09:58:59.187Z,99772.41
2023-01-01T10:03:16.867Z,99771.72
2023-01-01T10:07:30.167Z,99787.34
2023-01-01T10:11:43.745Z,99765.44
2023-01-01T10:15:50.970Z,99770.19
2023-01-01T10:19:58.290Z,99781.06
2023-01-01T10:24:05.640Z,99779.75
2023-01-01T10:28:16.474Z,99776.19
2023-01-01T10:32:22.131Z,99783.34
2023-01-01T10:36:26.892Z,99778.53
2023-01-01T10:40:31.285Z,99792.78
2023-01-01T10:44:36.693Z,99794.00
2023-01-01T10:48:39.729Z,99794.75
2023-01-01T10:52:44.138Z,99804.88
2023-01-01T10:56:46.925Z,99787.78
2023-01-01T11:00:59.751Z,99790.41
2023-01-01T11:05:21.095Z,99786.56
2023-01-01T11:09:26.902Z,99770.50
2023-01-01T11:13:31.035Z,99777.00
2023-01-01T11:17:37.626Z,99789.91
2023-01-01T11:21:48.308Z,99770.75
2023-01-01T11:26:05.110Z,99781.63
2023-01-01T11:30:22.267Z,99784.34
2023-01-01T11:34:33.250Z,99765.38
2023-01-01T11:38:36.379Z,99772.09
2023-01-01T11:42:46.569Z,99767.59
2023-01-01T11:46:49.828Z,99760.13
2023-01-01T11:50:56.549Z,99751.03
2023-01-01T11:55:09.815Z,99738.41
2023-01-01T11:59:17.463Z,99740.91
2023-01-01T12:03:32.939Z,99729.06
2023-01-01T12:07:41.587Z,99726.47
2023-01-01T12:11:49.227Z,99735.56
2023-01-01T12:16:02.461Z,99737.22
2023-01-01T12:20:14.420Z,99726.59
2023-01-01T12:24:18.731Z,99717.22
2023-01-01T12:28:34.499Z,99729.66
2023-01-01T12:33:05.653Z,99743.00
2023-01-01T12:37:21.475Z,99753.28
2023-01-01T12:41:33.057Z,99757.66
2023-01-01T12:46:06.236Z,99764.88
2023-01-01T12:50:17.706Z,99782.25
2023-01-01T12:54:40.139Z,99781.38
2023-01-01T12:58:51.801Z,99798.91
2023-01-01T13:02:59.789Z,99795.84
2023-01-01T13:07:05.779Z,99796.75
2023-01-01T13:11:10.711Z,99787.19
2023-01-01T13:15:48.515Z,99781.88
2023-01-01T13:19:58.028Z,99791.16
2023-01-01T13:24:22.304Z,99798.88
2023-01-01T13:28:25.097Z,99807.56
2023-01-01T13:33:05.035Z,99808.31
2023-01-01T13:37:28.579Z,99812.63
2023-01-01T13:41:35.540Z,99809.00
2023-01-01T13:50:10.563Z,99821.22
2023-01-01T13:54:43.281Z,99821.44
2023-01-01T13:59:07.834Z,99835.19
2023-01-01T14:03:14.547Z,99842.03
2023-01-01T14:11:53.674Z,99847.56
2023-01-01T14:15:59.582Z,99854.16
2023-01-01T14:20:06.675Z,99853.41
2023-01-01T14:24:09.916Z,99852.88
2023-01-01T14:28:21.021Z,99858.59
2023-01-01T14:32:27.293Z,99866.88
2023-01-01T14:36:55.470Z,99860.25
2023-01-01T14:41:13.970Z,99855.31
2023-01-01T14:45:19.884Z,99872.41
2023-01-01T14:49:27.839Z,99877.84
2023-01-01T14:53:34.374Z,99878.81
2023-01-01T14:57:38.815Z,99882.47
2023-01-01T15:01:43.170Z,99878.84
2023-01-01T15:05:47.497Z,99878.56
2023-01-01T15:09:51.040Z,99870.63
2023-01-01T15:13:55.428Z,99878.09
2023-01-01T15:17:59.654Z,99881.19
2023-01-01T15:22:03.518Z,99875.59
2023-01-01T15:26:09.913Z,99875.59
2023-01-01T15:30:24.901Z,99883.13
2023-01-01T15:34:31.568Z,99889.00
2023-01-01T15:38:36.873Z,99886.94
2023-01-01T15:42:41.790Z,99884.22
2023-01-01T15:46:47.340Z,99887.59
2023-01-01T15:51:12.766Z,99881.94
2023-01-01T15:55:16.702Z,99883.22
2023-01-01T15:59:27.419Z,99894.13
2023-01-01T16:03:32.992Z,99889.59
2023-01-01T16:07:37.059Z,99899.25
2023-01-01T16:11:39.813Z,99899.56
2023-01-01T16:15:50.420Z,99906.63
2023-01-01T16:19:55.078Z,99897.06
2023-01-01T16:23:59.718Z,99893.91
2023-01-01T16:28:04.126Z,99877.88
2023-01-01T16:32:07.252Z,99891.81
2023-01-01T16:36:13.036Z,99893.72
2023-01-01T16:40:17.958Z,99892.28
2023-01-01T16:44:21.152Z,99894.00
2023-01-01T16:48:23.993Z,99883.66
2023-01-01T16:52:32.901Z,99877.22
2023-01-01T16:56:37.661Z,99888.88
2023-01-01T17:00:40.389Z,99899.31
2023-01-01T17:04:43.217Z,99890.31
2023-01-01T17:08:46.050Z,99883.06
2023-01-01T17:12:50.137Z,99873.44
2023-01-01T17:16:55.280Z,99882.38
2023-01-01T17:21:03.626Z,99873.00
2023-01-01T17:25:07.425Z,99871.31
2023-01-01T17:29:11.951Z,99868.38
2023-01-01T17:33:14.726Z,99871.25
2023-01-01T17:37:17.446Z,99865.66
2023-01-01T17:41:20.268Z,99873.38
2023-01-01T17:45:24.398Z,99882.34
2023-01-01T17:49:27.074Z,99881.91
2023-01-01T17:53:29.898Z,99887.06
2023-01-01T17:57:33.017Z,99891.66
2023-01-01T18:01:37.450Z,99900.22
2023-01-01T18:05:40.311Z,99897.31
2023-01-01T18:09:43.113Z,99899.16
2023-01-01T18:13:45.829Z,99909.16
2023-01-01T18:17:50.376Z,99902.91
2023-01-01T18:21:53.269Z,99895.16
2023-01-01T18:26:00.996Z,99879.53
2023-01-01T18:30:03.924Z,99885.56
2023-01-01T18:34:08.153Z,99883.91
2023-01-01T18:38:12.019Z,99881.63
2023-01-01T18:42:38.866Z,99867.66
2023-01-01T18:46:41.592Z,99858.09
2023-01-01T18:50:45.659Z,99848.31
2023-01-01T18:54:48.620Z,99867.69
2023-01-01T18:58:52.256Z,99857.50
2023-01-01T19:02:59.424Z,99854.13
2023-01-01T19:07:03.874Z,99854.56
2023-01-01T19:11:12.798Z,99847.06
2023-01-01T19:15:18.144Z,99861.41
2023-01-01T19:19:23.074Z,99850.13
2023-01-01T19:23:27.237Z,99834.81
2023-01-01T19:27:35.410Z,99828.25
2023-01-01T19:31:38.300Z,99828.97
2023-01-01T19:35:41.106Z,99833.53
2023-01-01T19:39:45.310Z,99836.50
2023-01-01T19:43:48.219Z,99837.22
2023-01-01T19:47:51.136Z,99848.06
2023-01-01T19:51:53.874Z,99843.03
2023-01-01T19:55:58.418Z,99844.97
2023-01-01T20:00:01.165Z,99842.72
2023-01-01T20:04:04.059Z,99844.00
2023-01-01T20:08:07.114Z,99844.88
2023-01-01T20:12:11.532Z,99860.34
2023-01-01T20:16:14.791Z,99861.03
2023-01-01T20:20:18.341Z,99857.91
2023-01-01T20:24:21.658Z,99861.25
2023-01-01T20:28:43.822Z,99849.59
2023-01-01T20:32:47.079Z,99845.41
2023-01-01T20:37:07.663Z,99849.78
2023-01-01T20:41:25.692Z,99836.91
2023-01-01T20:45:31.891Z,99834.19
2023-01-01T20:49:34.923Z,99829.44
2023-01-01T20:53:37.984Z,99831.13
2023-01-01T20:57:41.028Z,99839.84
2023-01-01T21:01:45.900Z,99829.44
2023-01-01T21:05:48.909Z,99835.03
2023-01-01T21:09:52.034Z,99828.63
2023-01-01T21:13:54.909Z,99819.06
2023-01-01T21:17:59.126Z,99807.41
2023-01-01T21:22:01.885Z,99793.88
2023-01-01T21:26:15.100Z,99780.75
2023-01-01T21:30:18.457Z,99777.22
2023-01-01T21:34:33.341Z,99764.94
2023-01-01T21:38:36.536Z,99765.13
2023-01-01T21:42:39.261Z,99745.56
2023-01-01T21:46:47.006Z,99736.63
2023-01-01T21:50:51.905Z,99730.78
2023-01-01T21:54:55.720Z,99727.88
2023-01-01T21:59:21.735Z,99715.41
